Terminal Aerodrome Forecast
Issued by NWS

Home | Current Version | Previous Version | Graphics & Text | Print | Product List | Glossary On
Versions: 1 2 3 4 5 6 7 8 9 10 11 12 13 14 15 16 17
000
FTUS43 KMPX 021737
TAFRWF
TAF
KRWF 021737Z 0218/0318 32015G23KT P6SM FEW060
     FM030100 31010KT P6SM SKC
     FM030400 30004KT P6SM SKC
     FM031600 31010G16KT P6SM SKC=

USA.gov is the U.S. government's official web portal to all federal, state and local government web resources and services.